Time;durP1;ratioP1;P1;durP2;ratioP2;P2;SDS_P1;SDS_P2;PMS_P1;PMS_P2;Temp;Humidity;BMP_temperature;BMP_pressure;BME280_temperature;BME280_humidity;BME280_pressure;Samples;Min_cycle;Max_cycle;Signal;HPM_P1;HPM_P2
2021/12/19 00:02:43;;;;;;;12.15;5.82;;;;;;;6.42;88.90;102154.25;7393191;19;20081;-65
2021/12/19 00:10:35;;;;;;;12.27;4.95;;;;;;;6.43;86.53;102156.00;7393895;19;20082;-64
2021/12/19 00:13:03;;;;;;;12.63;4.35;;;;;;;6.42;87.21;102149.94;7393177;19;20048;-65
2021/12/19 00:15:31;;;;;;;10.18;4.45;;;;;;;6.44;87.61;102149.94;7392582;19;20483;-65
2021/12/19 00:18:12;;;;;;;8.63;4.78;;;;;;;6.45;87.97;102142.16;7394307;19;20010;-67
2021/12/19 00:20:41;;;;;;;12.77;4.80;;;;;;;6.44;87.48;102136.91;7402479;19;20070;-66
2021/12/19 00:23:09;;;;;;;13.25;5.25;;;;;;;6.46;89.95;102149.13;7401817;19;20035;-66
2021/12/19 00:25:40;;;;;;;10.27;4.68;;;;;;;6.46;89.85;102149.13;7399064;19;20110;-67
2021/12/19 00:28:08;;;;;;;12.15;5.53;;;;;;;6.46;89.24;102137.84;7402270;19;20019;-66
2021/12/19 00:30:37;;;;;;;13.57;5.18;;;;;;;6.46;87.54;102132.63;7400172;19;20452;-66
2021/12/19 00:33:05;;;;;;;10.30;5.15;;;;;;;6.46;89.19;102138.69;7398887;19;20018;-65
2021/12/19 00:35:33;;;;;;;11.50;5.32;;;;;;;6.47;89.22;102129.13;7398555;19;20078;-65
2021/12/19 00:38:01;;;;;;;12.30;4.85;;;;;;;6.46;89.01;102138.69;7401586;19;20032;-66
2021/12/19 00:40:29;;;;;;;15.52;6.03;;;;;;;6.46;88.84;102122.19;7398637;19;20027;-65
2021/12/19 00:43:07;;;;;;;12.52;5.13;;;;;;;6.45;89.59;102126.50;7398116;19;20499;-65
2021/12/19 00:45:38;;;;;;;12.38;4.78;;;;;;;6.46;90.07;102130.00;7398575;19;20018;-66
2021/12/19 00:48:08;;;;;;;10.93;4.00;;;;;;;6.46;90.24;102119.59;7401593;19;20040;-65
2021/12/19 00:50:37;;;;;;;11.77;4.10;;;;;;;6.46;89.09;102120.44;7398325;19;20019;-65
2021/12/19 00:53:07;;;;;;;14.15;4.68;;;;;;;6.47;90.34;102117.00;7398486;19;20039;-65
2021/12/19 00:55:35;;;;;;;13.90;4.05;;;;;;;6.46;88.57;102125.66;7398971;19;20035;-65
2021/12/19 00:58:06;;;;;;;9.57;3.85;;;;;;;6.45;88.12;102112.59;7398424;19;20022;-65
2021/12/19 01:00:37;;;;;;;14.02;4.13;;;;;;;6.45;87.75;102108.25;7398738;19;20018;-66
2021/12/19 01:03:06;;;;;;;9.70;4.15;;;;;;;6.49;89.15;102110.06;7398611;19;20027;-65
2021/12/19 01:05:38;;;;;;;11.73;3.95;;;;;;;6.49;90.06;102115.28;7398502;19;20022;-66
2021/12/19 01:08:08;;;;;;;10.50;3.47;;;;;;;6.50;89.29;102111.81;7401092;19;20025;-66
2021/12/19 01:10:37;;;;;;;13.15;5.55;;;;;;;6.49;88.99;102099.63;7399588;19;20022;-65
2021/12/19 01:13:08;;;;;;;9.40;3.60;;;;;;;6.49;87.55;102130.91;7397975;19;20026;-65
2021/12/19 01:15:36;;;;;;;6.95;3.20;;;;;;;6.51;88.30;102097.06;7398423;19;20031;-66
2021/12/19 01:18:06;;;;;;;8.95;3.60;;;;;;;6.49;86.65;102107.44;7398906;19;20028;-66
2021/12/19 01:20:37;;;;;;;7.28;3.45;;;;;;;6.50;85.47;102103.13;7397422;19;20408;-65
2021/12/19 01:23:06;;;;;;;12.38;3.75;;;;;;;6.50;86.46;102082.28;7400603;19;20036;-66
2021/12/19 01:25:35;;;;;;;10.98;3.97;;;;;;;6.54;88.28;102091.91;7397905;19;20086;-65
2021/12/19 01:28:03;;;;;;;10.35;3.70;;;;;;;6.51;86.93;102077.06;7399499;19;20420;-65
2021/12/19 01:30:34;;;;;;;14.32;3.78;;;;;;;6.51;88.44;102081.44;7395210;19;20077;-66
2021/12/19 01:33:03;;;;;;;7.85;2.80;;;;;;;6.52;88.65;102070.13;7397852;19;20026;-66
2021/12/19 01:35:31;;;;;;;9.48;3.65;;;;;;;6.51;88.99;102074.47;7397272;19;20014;-66
2021/12/19 01:38:00;;;;;;;10.00;3.25;;;;;;;6.54;88.27;102070.16;7399308;19;20425;-66
2021/12/19 01:40:28;;;;;;;10.10;2.78;;;;;;;6.49;85.52;102063.13;7399565;19;20025;-65
2021/12/19 01:42:59;;;;;;;10.23;3.30;;;;;;;6.50;86.46;102064.88;7397135;19;20022;-65
2021/12/19 01:45:31;;;;;;;9.18;2.88;;;;;;;6.48;85.72;102070.94;7397775;19;20018;-67
2021/12/19 01:48:03;;;;;;;8.80;3.05;;;;;;;6.49;87.16;102067.47;7397490;19;20026;-65
2021/12/19 01:50:33;;;;;;;9.80;3.15;;;;;;;6.46;85.85;102057.88;7399141;19;20091;-65
2021/12/19 01:53:03;;;;;;;8.63;3.22;;;;;;;6.45;86.33;102043.06;7396873;19;20023;-65
2021/12/19 01:55:32;;;;;;;9.90;3.35;;;;;;;6.43;86.77;102046.50;7396366;19;20511;-66
2021/12/19 01:58:00;;;;;;;13.07;3.85;;;;;;;6.42;86.44;102047.34;7398937;19;20066;-66
2021/12/19 02:00:31;;;;;;;5.88;2.80;;;;;;;6.41;87.45;102045.59;7398756;19;20018;-66
2021/12/19 02:03:02;;;;;;;12.60;2.83;;;;;;;6.42;86.61;102044.75;7396988;19;20018;-66
2021/12/19 02:05:31;;;;;;;6.60;2.97;;;;;;;6.41;87.38;102028.25;7396573;19;20039;-66
2021/12/19 02:08:01;;;;;;;7.65;2.63;;;;;;;6.41;86.50;102017.81;7396689;19;20022;-66
2021/12/19 02:10:33;;;;;;;9.40;2.83;;;;;;;6.41;86.64;102009.09;7398626;19;20015;-66
2021/12/19 02:13:02;;;;;;;7.30;2.78;;;;;;;6.41;86.26;102011.72;7398496;19;20019;-66
2021/12/19 02:15:52;;;;;;;12.98;3.13;;;;;;;6.41;85.73;102010.00;7396071;19;20050;-66
2021/12/19 02:18:35;;;;;;;5.72;2.15;;;;;;;6.40;85.93;102010.84;7396901;19;20422;-66
2021/12/19 02:21:06;;;;;;;8.18;3.13;;;;;;;6.39;84.99;102023.88;7396693;19;20018;-66
2021/12/19 02:23:35;;;;;;;4.82;2.42;;;;;;;6.40;85.80;102007.38;7397638;19;20547;-66
2021/12/19 02:26:03;;;;;;;7.80;2.80;;;;;;;6.39;85.47;101976.94;7395964;19;20018;-66
2021/12/19 02:28:31;;;;;;;6.22;2.45;;;;;;;6.39;85.16;102010.81;7396103;19;20026;-66
2021/12/19 02:30:59;;;;;;;4.95;2.10;;;;;;;6.40;87.68;102005.63;7397126;19;20019;-66
2021/12/19 02:33:28;;;;;;;7.40;2.50;;;;;;;6.39;86.47;101997.78;7396071;19;20018;-66
2021/12/19 02:36:03;;;;;;;11.13;2.63;;;;;;;6.39;87.07;101989.97;7395864;19;20014;-66
2021/12/19 02:39:17;;;;;;;6.78;2.72;;;;;;;6.38;86.14;101981.25;7395530;19;20363;-66
2021/12/19 02:49:30;;;;;;;6.03;2.53;;;;;;;6.35;87.93;101960.38;7397435;19;20021;-66
2021/12/19 02:51:59;;;;;;;7.90;2.60;;;;;;;6.32;85.13;101949.91;7395876;19;20097;-66
2021/12/19 02:54:30;;;;;;;10.73;2.83;;;;;;;6.31;87.17;101951.63;7395417;19;20030;-66
2021/12/19 02:56:59;;;;;;;9.70;3.20;;;;;;;6.30;87.74;101942.03;7395830;19;20019;-66
2021/12/19 02:59:27;;;;;;;7.65;3.13;;;;;;;6.29;85.79;101940.31;7397011;19;20018;-66
2021/12/19 03:01:55;;;;;;;6.22;2.85;;;;;;;6.30;86.27;101954.22;7395178;19;20039;-66
2021/12/19 03:04:24;;;;;;;5.93;2.90;;;;;;;6.27;86.44;101949.84;7396071;19;20035;-66
2021/12/19 03:06:52;;;;;;;4.72;3.45;;;;;;;6.25;85.07;101954.13;7394997;19;20021;-66
2021/12/19 03:09:38;;;;;;;5.53;3.33;;;;;;;6.24;87.08;101962.78;7394986;19;20019;-66
2021/12/19 03:12:24;;;;;;;6.30;3.22;;;;;;;6.24;87.03;101973.22;7395083;19;20015;-64
2021/12/19 03:18:00;;;;;;;8.10;3.17;;;;;;;6.24;87.39;101954.13;7392083;19;20014;-64
2021/12/19 03:20:30;;;;;;;7.47;3.35;;;;;;;6.17;85.19;101950.53;7394684;19;20029;-66
2021/12/19 03:22:58;;;;;;;8.23;4.32;;;;;;;6.19;87.16;101961.84;7396204;19;20019;-66
2021/12/19 03:25:27;;;;;;;5.93;3.42;;;;;;;6.17;86.77;101937.50;7394814;19;20035;-66
2021/12/19 03:27:58;;;;;;;6.60;3.65;;;;;;;6.16;85.97;101941.84;7395656;19;20473;-64
2021/12/19 03:30:26;;;;;;;5.20;3.35;;;;;;;6.16;86.86;101954.00;7394401;19;20026;-65
2021/12/19 03:32:55;;;;;;;6.75;3.83;;;;;;;6.15;86.21;101962.66;7393809;19;20542;-65
2021/12/19 03:35:23;;;;;;;5.25;4.35;;;;;;;6.14;87.26;101932.25;7394055;19;20027;-65
2021/12/19 03:37:52;;;;;;;4.63;3.75;;;;;;;6.14;87.20;101933.13;7394013;19;20029;-65
2021/12/19 03:40:34;;;;;;;8.93;4.53;;;;;;;6.14;87.77;101934.84;7395642;19;20018;-65
2021/12/19 03:43:09;;;;;;;9.98;4.00;;;;;;;6.12;86.36;101931.34;7394401;19;20036;-65
2021/12/19 03:45:39;;;;;;;7.55;4.38;;;;;;;6.13;87.16;101940.91;7393898;19;20078;-64
2021/12/19 03:48:11;;;;;;;6.97;3.95;;;;;;;6.09;85.30;101933.91;7395525;19;20066;-65
2021/12/19 03:50:43;;;;;;;8.00;4.45;;;;;;;6.10;86.16;101913.06;7394240;19;20018;-65
2021/12/19 03:53:11;;;;;;;5.70;3.40;;;;;;;6.09;86.33;101900.91;7394334;19;20015;-65
2021/12/19 03:55:39;;;;;;;4.93;3.78;;;;;;;6.09;86.50;101887.91;7393442;19;20074;-65
2021/12/19 03:58:11;;;;;;;4.90;3.15;;;;;;;6.09;85.53;101894.81;7395003;19;20461;-65
2021/12/19 04:00:42;;;;;;;5.82;3.65;;;;;;;6.07;85.51;101901.75;7393864;19;20032;-65
2021/12/19 04:03:16;;;;;;;5.47;3.45;;;;;;;6.07;85.83;101906.97;7394802;19;20534;-65
2021/12/19 04:05:44;;;;;;;;;;;;;;;6.05;85.25;101883.47;7394268;19;20044;-65
2021/12/19 04:08:12;;;;;;;5.35;3.50;;;;;;;6.06;87.02;101889.56;7392804;19;20328;-65
2021/12/19 04:10:41;;;;;;;5.55;3.22;;;;;;;6.06;87.13;101877.41;7394928;19;20035;-65
2021/12/19 04:13:12;;;;;;;7.03;3.10;;;;;;;6.05;85.09;101921.69;7392522;19;20421;-65
2021/12/19 04:15:40;;;;;;;7.43;2.92;;;;;;;6.03;85.81;101898.22;7392522;19;20559;-65
2021/12/19 04:18:08;;;;;;;6.05;2.72;;;;;;;6.03;86.96;101909.50;7393865;19;20082;-65
2021/12/19 04:20:36;;;;;;;9.73;3.50;;;;;;;6.02;84.80;101897.31;7394614;19;20036;-65
2021/12/19 04:23:04;;;;;;;9.50;3.58;;;;;;;6.00;85.60;101891.22;7394532;19;20023;-65
2021/12/19 04:25:33;;;;;;;7.57;3.47;;;;;;;6.02;85.86;101918.16;7392480;19;20118;-65
2021/12/19 04:28:01;;;;;;;5.63;3.13;;;;;;;6.01;85.97;101895.56;7392538;19;20018;-65
2021/12/19 04:30:31;;;;;;;6.97;3.10;;;;;;;6.00;86.12;101883.41;7394367;19;20018;-65
2021/12/19 04:33:03;;;;;;;3.90;2.72;;;;;;;6.02;87.49;101881.69;7392345;19;20023;-65
2021/12/19 04:35:34;;;;;;;4.82;2.85;;;;;;;6.01;86.14;101881.66;7392838;19;20015;-64
2021/12/19 04:40:48;;;;;;;6.35;3.10;;;;;;;6.00;86.06;101890.34;7394289;19;20066;-65
2021/12/19 04:51:52;;;;;;;6.40;3.60;;;;;;;6.01;86.50;101899.91;7389617;19;20355;-65
2021/12/19 04:54:32;;;;;;;6.47;3.20;;;;;;;6.00;86.30;101899.03;7393279;19;20023;-65
2021/12/19 04:57:20;;;;;;;6.25;3.20;;;;;;;6.01;87.03;101899.91;7394189;19;20014;-65
2021/12/19 04:59:56;;;;;;;7.13;2.55;;;;;;;6.01;86.55;101903.38;7393369;19;20483;-65
2021/12/19 05:02:44;;;;;;;5.40;2.85;;;;;;;6.03;86.58;101898.22;7391798;19;20014;-65
2021/12/19 05:15:56;;;;;;;6.22;3.10;;;;;;;6.01;85.99;101887.75;7397820;19;20022;-65
2021/12/19 05:18:30;;;;;;;8.52;3.33;;;;;;;6.03;86.19;101901.69;7398707;19;20503;-65
2021/12/19 05:21:02;;;;;;;;;;;;;;;6.03;85.79;101912.09;7397740;19;20044;-65
2021/12/19 05:23:49;;;;;;;10.07;3.75;;;;;;;6.02;85.85;101896.47;7397575;19;20270;-65
2021/12/19 05:26:18;;;;;;;6.18;3.10;;;;;;;6.01;87.01;101885.13;7400525;19;20014;-65
2021/12/19 05:28:48;;;;;;;6.22;3.30;;;;;;;6.00;85.48;101882.53;7397554;19;20022;-65
2021/12/19 05:31:16;;;;;;;8.43;3.50;;;;;;;6.02;86.89;101871.25;7400412;19;20014;-65
2021/12/19 05:33:47;;;;;;;7.40;4.00;;;;;;;6.01;85.86;101879.94;7399482;19;20015;-66
2021/12/19 05:46:58;;;;;;;6.13;3.13;;;;;;;5.98;88.42;101873.78;7396374;19;20007;-66
2021/12/19 05:49:29;;;;;;;8.57;3.60;;;;;;;5.95;87.81;101882.44;7399333;19;20031;-65
2021/12/19 05:51:57;;;;;;;11.73;3.80;;;;;;;5.95;88.32;101873.72;7397398;19;20068;-65
2021/12/19 05:54:26;;;;;;;7.68;3.63;;;;;;;5.92;87.70;101853.72;7396783;19;20014;-65
2021/12/19 05:56:54;;;;;;;7.78;3.67;;;;;;;5.91;88.21;101866.72;7396413;19;20377;-66
2021/12/19 05:59:22;;;;;;;8.90;3.72;;;;;;;5.89;88.73;101866.72;7398576;19;20483;-66
2021/12/19 06:01:50;;;;;;;10.23;3.45;;;;;;;5.87;89.01;101853.63;7398894;19;20018;-66
2021/12/19 06:04:19;;;;;;;7.90;4.32;;;;;;;5.86;89.90;101853.63;7396789;19;20479;-66
2021/12/19 06:06:51;;;;;;;9.38;3.70;;;;;;;5.85;90.39;101852.75;7396762;19;20015;-65
2021/12/19 06:09:19;;;;;;;8.90;4.18;;;;;;;5.84;90.10;101858.81;7396944;19;20078;-66
2021/12/19 06:11:47;;;;;;;10.05;3.88;;;;;;;5.82;89.97;101872.66;7398172;19;20014;-66
2021/12/19 06:14:15;;;;;;;7.50;4.22;;;;;;;5.78;89.76;101865.66;7396371;19;20354;-66
2021/12/19 06:16:43;;;;;;;12.23;4.57;;;;;;;5.77;90.93;101859.56;7397222;19;20011;-66
2021/12/19 06:19:12;;;;;;;15.52;4.20;;;;;;;5.77;91.27;101863.91;7395778;19;20006;-66
2021/12/19 06:21:40;;;;;;;9.40;4.05;;;;;;;5.76;91.27;101855.19;7396232;19;20022;-65
2021/12/19 06:24:11;;;;;;;16.40;3.90;;;;;;;5.76;91.19;101852.59;7397632;19;20023;-66
2021/12/19 06:26:39;;;;;;;10.90;4.05;;;;;;;5.76;91.07;101859.53;7396567;19;20031;-65
2021/12/19 06:29:07;;;;;;;10.48;4.25;;;;;;;5.76;91.12;101851.72;7398050;19;20361;-66
2021/12/19 06:31:35;;;;;;;10.93;4.95;;;;;;;5.78;91.08;101860.44;7395806;19;20035;-65
2021/12/19 06:34:04;;;;;;;12.20;4.20;;;;;;;5.78;90.53;101860.44;7397328;19;20038;-66
2021/12/19 06:36:32;;;;;;;13.38;5.05;;;;;;;5.77;90.49;101840.47;7397379;19;20478;-66
2021/12/19 06:39:02;;;;;;;11.93;4.13;;;;;;;5.83;90.44;101851.84;7397588;19;20015;-66
2021/12/19 06:41:33;;;;;;;11.75;4.18;;;;;;;5.85;90.49;101839.72;7395741;19;20022;-66
2021/12/19 06:44:01;;;;;;;11.23;4.40;;;;;;;5.88;91.08;101831.09;7395800;19;20041;-65
2021/12/19 06:46:29;;;;;;;8.73;4.30;;;;;;;5.90;91.56;101834.56;7397360;19;20365;-65
2021/12/19 06:48:57;;;;;;;9.68;4.80;;;;;;;5.92;91.73;101832.88;7397273;19;20031;-64
2021/12/19 06:51:25;;;;;;;8.95;4.72;;;;;;;5.92;91.18;101830.28;7397114;19;20015;-66
2021/12/19 06:53:53;;;;;;;9.48;5.03;;;;;;;5.93;90.56;101836.38;7395259;19;20036;-65
2021/12/19 06:56:21;;;;;;;10.70;4.72;;;;;;;5.91;91.39;101827.66;7395380;19;20030;-66
2021/12/19 06:58:52;;;;;;;10.45;4.47;;;;;;;5.91;91.38;101825.06;7395398;19;20014;-66
2021/12/19 07:01:21;;;;;;;7.80;4.28;;;;;;;5.85;91.13;101824.09;7397017;19;20018;-66
2021/12/19 07:03:49;;;;;;;10.70;4.90;;;;;;;5.84;91.04;101805.84;7397267;19;20035;-64
2021/12/19 07:06:17;;;;;;;9.77;4.38;;;;;;;5.82;91.37;101805.81;7397492;19;20015;-66
2021/12/19 07:08:45;;;;;;;9.00;4.05;;;;;;;5.79;90.13;101811.00;7396698;19;20031;-65
2021/12/19 07:11:13;;;;;;;15.07;4.78;;;;;;;5.78;90.51;101822.25;7394548;19;20622;-66
2021/12/19 07:13:41;;;;;;;8.77;3.88;;;;;;;5.79;90.86;101823.16;7394559;19;20024;-65
2021/12/19 07:16:12;;;;;;;15.73;5.35;;;;;;;5.78;91.20;101804.03;7396402;19;20015;-66
2021/12/19 07:18:42;;;;;;;11.00;4.10;;;;;;;5.80;90.98;101820.56;7394503;19;20010;-66
2021/12/19 07:21:11;;;;;;;11.02;4.53;;;;;;;5.80;90.97;101817.06;7395053;19;20023;-66
2021/12/19 07:23:39;;;;;;;12.38;4.65;;;;;;;5.81;91.59;101818.81;7393924;19;20035;-66
2021/12/19 07:26:08;;;;;;;12.00;4.88;;;;;;;5.79;91.00;101791.91;7393693;19;20018;-66
2021/12/19 07:28:36;;;;;;;15.50;5.05;;;;;;;5.79;90.83;101794.50;7394114;19;20011;-64
2021/12/19 07:31:05;;;;;;;9.63;4.20;;;;;;;5.79;90.66;101789.28;7393986;19;20014;-64
2021/12/19 07:33:35;;;;;;;13.05;4.78;;;;;;;5.78;91.29;101798.81;7394210;19;20039;-67
2021/12/19 07:36:04;;;;;;;10.65;4.28;;;;;;;5.79;90.64;101800.56;7393906;19;20010;-65
2021/12/19 07:38:36;;;;;;;11.70;4.43;;;;;;;5.78;90.65;101791.00;7395652;19;20041;-65
2021/12/19 07:41:05;;;;;;;11.05;4.60;;;;;;;5.80;90.77;101778.00;7396049;19;20018;-64
2021/12/19 07:43:33;;;;;;;13.70;4.38;;;;;;;5.82;91.50;101784.97;7395214;19;20496;-65
2021/12/19 07:46:01;;;;;;;10.93;4.07;;;;;;;5.82;91.17;101776.31;7393355;19;20479;-64
2021/12/19 07:48:36;;;;;;;9.40;4.32;;;;;;;5.83;91.47;101788.47;7395414;19;20019;-65
2021/12/19 07:51:07;;;;;;;14.30;4.85;;;;;;;5.83;91.59;101785.88;7395816;19;20027;-65
2021/12/19 07:53:35;;;;;;;18.33;5.63;;;;;;;5.83;90.93;101788.47;7393599;19;20027;-64
2021/12/19 07:56:03;;;;;;;22.10;6.50;;;;;;;5.82;91.31;101776.31;7393370;19;20023;-65
2021/12/19 07:58:32;;;;;;;12.00;5.25;;;;;;;5.82;92.23;101778.91;7394181;19;20032;-65
2021/12/19 08:01:00;;;;;;;11.98;5.43;;;;;;;5.79;92.26;101758.03;7395206;19;20019;-66
2021/12/19 08:03:28;;;;;;;15.52;5.80;;;;;;;5.77;92.26;101767.56;7393214;19;20031;-66
2021/12/19 08:05:56;;;;;;;12.10;7.13;;;;;;;5.75;92.53;101753.63;7393270;19;20027;-65
2021/12/19 08:08:32;;;;;;;11.00;5.65;;;;;;;5.73;92.68;101768.38;7394916;19;20479;-66
2021/12/19 08:13:42;;;;;;;8.80;4.47;;;;;;;5.68;92.07;101755.28;7392651;19;20556;-66
2021/12/19 08:16:10;;;;;;;8.95;4.72;;;;;;;5.68;92.51;101753.53;7392448;19;20015;-66
2021/12/19 08:18:52;;;;;;;12.88;5.15;;;;;;;5.69;91.98;101744.88;7391857;19;20027;-64
2021/12/19 08:21:21;;;;;;;11.63;5.78;;;;;;;5.69;91.84;101737.06;7395204;19;20019;-64
2021/12/19 08:23:52;;;;;;;10.98;5.63;;;;;;;5.69;90.82;101749.22;7394234;19;20032;-65
2021/12/19 08:26:20;;;;;;;10.07;5.55;;;;;;;5.70;90.95;101741.41;7392872;19;20023;-64
2021/12/19 08:28:48;;;;;;;10.23;4.78;;;;;;;5.71;90.47;101737.06;7394621;19;20482;-64
2021/12/19 08:31:16;;;;;;;8.98;4.95;;;;;;;5.73;90.80;101731.91;7394316;19;20015;-65
2021/12/19 08:33:45;;;;;;;10.60;5.45;;;;;;;5.73;90.35;101737.97;7391949;19;20011;-65
2021/12/19 08:36:13;;;;;;;16.10;6.07;;;;;;;5.74;90.49;101741.44;7393572;19;20014;-65
2021/12/19 08:38:41;;;;;;;13.55;6.22;;;;;;;5.75;90.94;101724.97;7393672;19;20018;-65
2021/12/19 08:41:12;;;;;;;9.50;5.68;;;;;;;5.74;91.84;101718.91;7401241;19;20035;-65
2021/12/19 08:43:40;;;;;;;9.60;4.97;;;;;;;5.72;91.50;101718.00;7401860;19;20027;-65
2021/12/19 08:46:11;;;;;;;9.40;4.82;;;;;;;5.71;92.01;101716.25;7398550;19;20018;-65
2021/12/19 08:48:39;;;;;;;10.50;5.22;;;;;;;5.68;91.98;101713.59;7399005;19;20028;-65
2021/12/19 08:51:08;;;;;;;9.70;4.30;;;;;;;5.67;92.50;101717.94;7397987;19;20366;-65
2021/12/19 08:53:36;;;;;;;10.40;5.57;;;;;;;5.67;92.83;101711.84;7398581;19;20377;-65
2021/12/19 08:56:05;;;;;;;11.18;4.90;;;;;;;5.63;92.16;101726.56;7401001;19;20022;-65
2021/12/19 08:58:36;;;;;;;10.05;4.75;;;;;;;5.65;92.33;101706.63;7398150;19;20028;-64
2021/12/19 09:01:05;;;;;;;10.65;4.40;;;;;;;5.65;91.56;101717.03;7398216;19;20021;-65
2021/12/19 09:03:35;;;;;;;7.07;3.80;;;;;;;5.65;90.66;101718.75;7400868;19;20040;-65
2021/12/19 09:06:03;;;;;;;6.30;4.18;;;;;;;5.66;89.87;101707.50;7397948;19;20022;-65
2021/12/19 09:08:32;;;;;;;3.42;2.20;;;;;;;5.68;88.92;101716.22;7400601;19;20014;-65
2021/12/19 09:11:00;;;;;;;9.73;3.75;;;;;;;5.72;88.21;101725.81;7397408;19;20456;-66
2021/12/19 09:13:28;;;;;;;3.63;2.08;;;;;;;5.77;85.41;101694.63;7397830;19;20018;-66
2021/12/19 09:15:59;;;;;;;6.80;1.98;;;;;;;5.82;85.51;101687.75;7397927;19;20014;-66
2021/12/19 09:18:28;;;;;;;5.15;1.63;;;;;;;5.86;84.01;101707.75;7397313;19;20519;-66
2021/12/19 09:20:56;;;;;;;2.33;1.50;;;;;;;5.93;85.66;101703.53;7397294;19;20035;-66
2021/12/19 09:23:27;;;;;;;2.35;1.40;;;;;;;5.93;86.10;101696.59;7397299;19;20031;-64
2021/12/19 09:25:55;;;;;;;6.60;2.90;;;;;;;6.00;86.72;101713.19;7397064;19;20023;-64
2021/12/19 09:28:23;;;;;;;3.95;1.88;;;;;;;6.00;85.71;101708.88;7396535;19;20413;-65
2021/12/19 09:30:52;;;;;;;7.63;2.88;;;;;;;6.02;86.37;101716.69;7399204;19;20079;-64
2021/12/19 09:33:22;;;;;;;7.93;2.47;;;;;;;5.99;86.53;101704.50;7396605;19;20027;-64
2021/12/19 09:35:51;;;;;;;3.78;2.00;;;;;;;5.96;85.42;101707.03;7396891;19;20015;-66
2021/12/19 09:38:20;;;;;;;2.92;1.52;;;;;;;5.96;85.73;101695.75;7399263;19;20011;-65
2021/12/19 09:40:48;;;;;;;3.78;1.80;;;;;;;5.94;86.06;101685.31;7399276;19;20033;-65
2021/12/19 09:43:41;;;;;;;4.80;1.38;;;;;;;5.91;85.53;101694.81;7400225;19;20021;-65
2021/12/19 09:46:11;;;;;;;7.97;1.20;;;;;;;5.92;85.77;101671.38;7402290;19;20018;-65
2021/12/19 09:48:44;;;;;;;4.03;1.95;;;;;;;5.90;86.05;101660.06;7397238;19;20368;-65
2021/12/19 09:51:14;;;;;;;1.90;1.17;;;;;;;5.88;86.31;101680.88;7395284;19;20019;-65
2021/12/19 09:53:44;;;;;;;3.30;1.10;;;;;;;5.84;86.73;101652.19;7398008;19;20084;-65
2021/12/19 09:56:12;;;;;;;3.22;1.20;;;;;;;5.82;87.46;101656.50;7398426;19;20496;-65
2021/12/19 09:58:42;;;;;;;5.20;2.40;;;;;;;5.80;87.80;101645.19;7396566;19;20018;-64
2021/12/19 10:01:12;;;;;;;2.15;1.02;;;;;;;5.76;88.02;101638.19;7396283;19;20019;-64
2021/12/19 10:03:43;;;;;;;1.65;1.08;;;;;;;5.76;88.66;101652.06;7396705;19;20038;-65
2021/12/19 10:06:20;;;;;;;4.72;1.67;;;;;;;5.75;88.68;101645.16;7398219;19;20487;-66
2021/12/19 10:08:53;;;;;;;3.10;1.00;;;;;;;5.77;88.01;101632.13;7399057;19;20035;-65
2021/12/19 10:11:32;;;;;;;1.40;0.80;;;;;;;5.79;88.64;101635.66;7396061;19;20512;-66
2021/12/19 10:14:01;;;;;;;2.08;1.23;;;;;;;5.79;89.61;101659.09;7396484;19;20022;-65
2021/12/19 10:16:31;;;;;;;3.85;1.17;;;;;;;5.78;90.60;101639.09;7398186;19;20046;-66
2021/12/19 10:19:03;;;;;;;3.28;1.13;;;;;;;5.73;91.54;101625.16;7397867;19;20037;-66
2021/12/19 10:21:37;;;;;;;1.60;0.90;;;;;;;5.68;92.83;101627.69;7396269;19;20039;-65
2021/12/19 10:24:06;;;;;;;2.33;1.30;;;;;;;5.62;93.75;101628.47;7398205;19;20034;-65
2021/12/19 10:26:47;;;;;;;5.85;2.60;;;;;;;5.53;94.75;101612.75;7398300;19;20049;-65
2021/12/19 10:29:15;;;;;;;2.92;1.83;;;;;;;5.49;94.11;101614.41;7397467;19;20518;-65
2021/12/19 10:31:43;;;;;;;3.20;1.30;;;;;;;5.45;94.90;101596.16;7395737;19;20014;-65
2021/12/19 10:34:25;;;;;;;3.50;1.58;;;;;;;5.41;95.47;101621.28;7395436;19;20014;-66
2021/12/19 10:36:53;;;;;;;3.08;1.80;;;;;;;5.39;95.79;101615.16;7396069;19;20014;-66
2021/12/19 10:39:23;;;;;;;4.53;1.92;;;;;;;5.37;96.08;101604.72;7395357;19;20031;-65
2021/12/19 10:42:00;;;;;;;5.03;1.70;;;;;;;5.36;96.63;101597.78;7394976;19;20455;-66
2021/12/19 10:47:25;;;;;;;3.10;1.83;;;;;;;5.37;97.06;101576.09;7397220;19;20042;-66
2021/12/19 10:49:57;;;;;;;3.95;1.48;;;;;;;5.36;96.48;101581.31;7395912;19;20037;-66
2021/12/19 10:52:37;;;;;;;4.75;1.92;;;;;;;5.34;96.75;101564.78;7397547;19;20022;-64
2021/12/19 10:55:08;;;;;;;2.50;1.67;;;;;;;5.35;96.82;101571.75;7395352;19;20041;-65
2021/12/19 10:57:39;;;;;;;3.58;1.60;;;;;;;5.33;97.11;101563.91;7396958;19;20019;-65
2021/12/19 11:00:11;;;;;;;4.05;1.90;;;;;;;5.34;96.67;101570.84;7395405;19;20029;-67
2021/12/19 11:02:42;;;;;;;2.90;1.60;;;;;;;5.33;96.59;101563.91;7395308;19;20059;-67
2021/12/19 11:05:37;;;;;;;6.30;2.42;;;;;;;5.27;96.29;101560.34;7395016;19;20015;-66
2021/12/19 11:08:08;;;;;;;6.45;2.58;;;;;;;5.32;95.86;101582.09;7397110;19;20021;-65
2021/12/19 11:10:37;;;;;;;6.07;2.72;;;;;;;5.32;94.22;101602.91;7397085;19;20022;-69
2021/12/19 11:13:11;;;;;;;5.88;3.10;;;;;;;5.33;94.31;101592.53;7396328;19;20018;-66
2021/12/19 11:15:41;;;;;;;;;;;;;;;5.34;94.30;101583.84;7395546;19;20102;-68
2021/12/19 11:18:10;;;;;;;6.80;3.05;;;;;;;5.35;94.35;101576.94;7396485;19;20338;-65
2021/12/19 11:20:41;;;;;;;6.50;3.30;;;;;;;5.36;94.06;101569.16;7394794;19;20007;-65
2021/12/19 11:23:09;;;;;;;5.47;3.63;;;;;;;5.37;94.17;101575.22;7394747;19;20014;-64
2021/12/19 11:25:39;;;;;;;9.38;3.45;;;;;;;5.41;94.57;101578.75;7394341;19;20018;-65
2021/12/19 11:28:07;;;;;;;6.93;3.40;;;;;;;5.39;93.78;101566.56;7394733;19;20023;-65
2021/12/19 11:30:36;;;;;;;9.75;3.38;;;;;;;5.39;93.39;101569.19;7394853;19;20370;-66
2021/12/19 11:33:17;;;;;;;10.40;3.95;;;;;;;5.41;93.75;101578.75;7394484;19;20374;-65
2021/12/19 11:35:51;;;;;;;9.52;3.30;;;;;;;5.42;94.07;101567.47;7393407;19;20479;-66
2021/12/19 11:38:22;;;;;;;8.27;4.07;;;;;;;5.41;94.42;101569.22;7394430;19;20014;-66
2021/12/19 11:40:51;;;;;;;5.78;3.20;;;;;;;5.38;94.18;101558.75;7394330;19;20022;-66
2021/12/19 11:43:20;;;;;;;6.75;3.60;;;;;;;5.39;94.80;101558.75;7393760;19;20015;-67
2021/12/19 11:46:01;;;;;;;8.07;3.55;;;;;;;5.37;94.54;101550.09;7393675;19;20015;-66
2021/12/19 11:48:33;;;;;;;10.25;3.72;;;;;;;5.38;94.57;101541.44;7394070;19;20014;-66
2021/12/19 11:51:06;;;;;;;8.57;3.00;;;;;;;5.37;94.72;101539.69;7395653;19;20025;-67
2021/12/19 11:53:36;;;;;;;7.07;3.73;;;;;;;5.37;94.64;101531.88;7395289;19;20011;-67
2021/12/19 11:56:14;;;;;;;9.30;3.50;;;;;;;5.36;94.50;101517.09;7393425;19;20022;-68
2021/12/19 11:58:46;;;;;;;9.85;3.78;;;;;;;5.37;95.17;101523.16;7395261;19;20028;-66
2021/12/19 12:01:18;;;;;;;8.43;3.67;;;;;;;5.35;95.78;101504.09;7395367;19;20037;-67
2021/12/19 12:03:51;;;;;;;10.25;3.70;;;;;;;5.34;95.81;101495.38;7394942;19;20018;-66
2021/12/19 12:06:36;;;;;;;8.50;3.30;;;;;;;5.35;96.01;101485.88;7393606;19;20015;-65
2021/12/19 12:09:25;;;;;;;10.23;3.67;;;;;;;5.34;96.77;101494.53;7393711;19;20018;-65
2021/12/19 12:12:13;;;;;;;6.68;2.85;;;;;;;5.33;96.69;101483.25;7394565;19;20054;-66
2021/12/19 12:14:44;;;;;;;6.95;3.60;;;;;;;5.32;96.87;101481.50;7397214;19;20027;-67
2021/12/19 12:17:19;;;;;;;6.13;3.90;;;;;;;5.31;96.96;101489.28;7399356;19;20015;-66
2021/12/19 12:19:50;;;;;;;9.10;4.20;;;;;;;5.30;97.01;101495.34;7400948;19;20025;-66
2021/12/19 12:22:43;;;;;;;9.10;3.63;;;;;;;5.30;97.58;101478.00;7402393;19;20066;-66
2021/12/19 12:25:18;;;;;;;9.30;4.00;;;;;;;5.30;97.55;101483.19;7400358;19;20018;-67
2021/12/19 12:27:51;;;;;;;9.52;4.07;;;;;;;5.31;97.64;101490.16;7402170;19;20045;-67
2021/12/19 12:30:22;;;;;;;9.30;3.42;;;;;;;5.33;98.06;101496.25;7402264;19;20031;-66
2021/12/19 12:32:50;;;;;;;6.47;2.95;;;;;;;5.32;98.05;101478.91;7399114;19;20035;-65
2021/12/19 12:35:19;;;;;;;9.13;3.42;;;;;;;5.33;98.18;101466.75;7398238;19;20035;-66
2021/12/19 12:37:51;;;;;;;11.05;3.80;;;;;;;5.34;98.45;101461.56;7398205;19;20377;-67
2021/12/19 12:40:28;;;;;;;11.30;4.43;;;;;;;5.36;98.55;101464.19;7398087;19;20017;-66
2021/12/19 12:42:59;;;;;;;6.78;3.67;;;;;;;5.35;98.84;101463.31;7401663;19;20090;-66
2021/12/19 12:45:28;;;;;;;13.27;3.75;;;;;;;5.34;98.96;101455.50;7399210;19;20029;-66